KPIH/PIH METAR and TAF weather

Enter ICAO airport designator
Station Type Date Time Source
KPIH METAR 2019/04/22 19:53 UTC NOAA

KPIH 221953Z 28009KT 10SM SCT045 BKN060 16/03 A3022 RMK AO2 SLP216 T01560033


Station Type Date Time Source
KPIH Decoded METAR 2019/04/22 19:53 UTC NOAA

POCATELLO REGIONAL AIRPORT, ID, United States (KPIH) 42-55N 112-36W 1359M
Apr 22, 2019 - 03:53 PM EDT / 2019.04.22 1953 UTC
Wind: from the W (280 degrees) at 10 MPH (9 KT):0
Visibility: 10 mile(s):0
Sky conditions: mostly cloudy
Temperature: 60.1 F (15.6 C)
Dew Point: 37.9 F (3.3 C)
Relative Humidity: 43%
Pressure (altimeter): 30.22 in. Hg (1023 hPa)
ob: KPIH 221953Z 28009KT 10SM SCT045 BKN060 16/03 A3022 RMK AO2 SLP216 T01560033
cycle: 20

Station Type Date Time Source
KPIH TAF 2019/04/22 18:24 UTC NOAA

TAF KPIH 221720Z 2218/2318 04009KT P6SM BKN050
FM222000 33007KT P6SM SCT050
FM230200 19007KT P6SM FEW040

Example: see airport list